createdAt,value
2022-10-23T00:01:28.361Z,77184.84
2022-10-23T00:04:00.989Z,77178.88
2022-10-23T00:06:29.089Z,77188.81
2022-10-23T00:08:58.533Z,77186.84
2022-10-23T00:11:28.382Z,77194.78
2022-10-23T00:13:58.774Z,77202.75
2022-10-23T00:16:25.851Z,77210.69
2022-10-23T00:18:52.686Z,77220.63
2022-10-23T00:21:19.252Z,77218.63
2022-10-23T00:23:46.137Z,77232.56
2022-10-23T00:26:15.879Z,77230.56
2022-10-23T00:28:43.920Z,77210.69
2022-10-23T00:31:11.001Z,77208.69
2022-10-23T00:33:37.931Z,77210.69
2022-10-23T00:36:09.867Z,77208.69
2022-10-23T00:38:36.931Z,77218.63
2022-10-23T00:41:05.417Z,77212.69
2022-10-23T00:43:33.376Z,77212.69
2022-10-23T00:46:00.049Z,77194.78
2022-10-23T00:48:28.271Z,77210.69
2022-10-23T00:50:55.791Z,77198.75
2022-10-23T00:53:22.783Z,77178.88
2022-10-23T00:55:53.154Z,77186.84
2022-10-23T00:58:20.983Z,77196.78
2022-10-23T01:00:50.562Z,77184.84
2022-10-23T01:03:19.196Z,77184.84
2022-10-23T01:05:53.902Z,77178.88
2022-10-23T01:08:46.855Z,77182.88
2022-10-23T01:11:20.580Z,77192.81
2022-10-23T01:13:55.618Z,77186.84
2022-10-23T01:16:45.670Z,77200.75
2022-10-23T01:19:24.403Z,77190.81
2022-10-23T01:22:28.304Z,77204.72
2022-10-23T01:24:59.553Z,77222.63
2022-10-23T01:27:37.610Z,77236.53
2022-10-23T01:30:10.171Z,77234.53
2022-10-23T01:33:08.443Z,77252.44
2022-10-23T01:35:40.396Z,77246.47
2022-10-23T01:38:15.001Z,77250.44
2022-10-23T01:40:48.622Z,77250.44
2022-10-23T01:43:20.293Z,77240.50
2022-10-23T01:45:53.349Z,77240.50
2022-10-23T01:48:25.230Z,77254.41
2022-10-23T01:50:55.484Z,77252.44
2022-10-23T01:53:22.969Z,77244.47
2022-10-23T01:55:51.073Z,77234.53
2022-10-23T01:58:21.096Z,77242.50
2022-10-23T02:00:49.859Z,77242.50
2022-10-23T02:03:18.224Z,77234.53
2022-10-23T02:05:45.397Z,77254.41
2022-10-23T02:08:12.516Z,77236.53
2022-10-23T02:10:38.923Z,77242.50
2022-10-23T02:13:21.804Z,77248.44
2022-10-23T02:15:57.667Z,77238.50
2022-10-23T02:18:53.958Z,77242.50
2022-10-23T02:21:49.113Z,77240.50
2022-10-23T02:24:20.225Z,77230.56
2022-10-23T02:26:58.036Z,77206.72
2022-10-23T02:29:36.113Z,77200.75
2022-10-23T02:32:02.647Z,77190.81
2022-10-23T02:34:29.123Z,77202.75
2022-10-23T02:36:56.299Z,77202.75
2022-10-23T02:39:26.801Z,77188.81
2022-10-23T02:42:00.513Z,77174.91
2022-10-23T02:44:55.788Z,77178.88
2022-10-23T02:47:55.254Z,77164.97
2022-10-23T02:50:29.515Z,77176.91
2022-10-23T02:53:06.875Z,77176.91
2022-10-23T02:55:58.348Z,77161.00
2022-10-23T02:58:56.770Z,77176.91
2022-10-23T03:01:29.324Z,77172.94
2022-10-23T03:03:59.319Z,77166.97
2022-10-23T03:06:26.251Z,77168.94
2022-10-23T03:09:06.295Z,77180.88
2022-10-23T03:11:32.900Z,77170.94
2022-10-23T03:13:59.491Z,77168.94
2022-10-23T03:16:26.227Z,77188.81
2022-10-23T03:18:53.024Z,77194.78
2022-10-23T03:21:20.036Z,77200.75
2022-10-23T03:23:46.504Z,77200.75
2022-10-23T03:26:12.954Z,77212.69
2022-10-23T03:28:39.455Z,77214.66
2022-10-23T03:31:06.025Z,77208.69
2022-10-23T03:33:32.915Z,77206.72
2022-10-23T03:35:59.440Z,77218.63
2022-10-23T03:38:25.954Z,77212.69
2022-10-23T03:40:52.443Z,77206.72
2022-10-23T03:43:18.924Z,77200.75
2022-10-23T03:45:45.425Z,77204.72
2022-10-23T03:48:11.927Z,77210.69
2022-10-23T03:50:38.444Z,77224.59
2022-10-23T03:53:04.909Z,77212.69
2022-10-23T03:55:31.453Z,77228.56
2022-10-23T03:57:57.944Z,77226.59
2022-10-23T04:00:24.483Z,77238.50
2022-10-23T04:02:50.990Z,77242.50
2022-10-23T04:05:17.733Z,77242.50
2022-10-23T04:07:44.220Z,77244.47
2022-10-23T04:10:10.732Z,77256.41
2022-10-23T04:12:37.249Z,77266.34
2022-10-23T04:15:04.421Z,77278.25
2022-10-23T04:17:30.897Z,77290.19
2022-10-23T04:19:57.393Z,77288.22
2022-10-23T04:22:26.085Z,77282.25
2022-10-23T04:24:54.836Z,77294.16
2022-10-23T04:27:21.270Z,77300.13
2022-10-23T04:29:47.803Z,77290.19
2022-10-23T04:32:14.267Z,77274.28
2022-10-23T04:34:40.707Z,77274.28
2022-10-23T04:37:07.232Z,77310.06
2022-10-23T04:39:33.800Z,77327.97
2022-10-23T04:42:00.328Z,77345.84
2022-10-23T04:44:26.810Z,77359.75
2022-10-23T04:46:53.287Z,77371.69
2022-10-23T04:49:19.761Z,77385.59
2022-10-23T04:51:46.264Z,77367.72
2022-10-23T04:54:12.740Z,77365.72
2022-10-23T04:56:39.300Z,77381.63
2022-10-23T05:01:37.332Z,77373.66
2022-10-23T05:04:04.304Z,77365.72
2022-10-23T05:06:30.817Z,77373.66
2022-10-23T05:08:57.395Z,77377.66
2022-10-23T05:11:23.873Z,77377.66
2022-10-23T05:13:50.319Z,77333.91
2022-10-23T05:16:46.669Z,77312.06
2022-10-23T05:19:21.973Z,77349.81
2022-10-23T05:21:55.813Z,77365.72
2022-10-23T05:24:23.208Z,77379.63
2022-10-23T05:26:51.702Z,77383.59
2022-10-23T05:29:19.343Z,77379.63
2022-10-23T05:31:46.849Z,77367.72
2022-10-23T05:34:15.380Z,77393.56
2022-10-23T05:36:41.887Z,77401.50
2022-10-23T05:39:08.796Z,77411.44
2022-10-23T05:41:35.232Z,77417.41
2022-10-23T05:44:01.713Z,77421.38
2022-10-23T05:46:28.969Z,77429.31
2022-10-23T05:48:55.618Z,77433.31
2022-10-23T05:51:23.191Z,77423.38
2022-10-23T05:53:50.213Z,77419.38
2022-10-23T05:56:16.980Z,77439.25
2022-10-23T05:58:43.872Z,77457.16
2022-10-23T06:01:12.881Z,77465.09
2022-10-23T06:03:40.457Z,77465.09
2022-10-23T06:06:07.757Z,77469.09
2022-10-23T06:08:35.461Z,77447.22
2022-10-23T06:11:10.122Z,77457.16
2022-10-23T06:13:37.231Z,77449.19
2022-10-23T06:16:19.951Z,77421.38
2022-10-23T06:18:46.945Z,77439.25
2022-10-23T06:21:14.666Z,77417.41
2022-10-23T06:23:42.478Z,77423.38
2022-10-23T06:26:11.259Z,77419.38
2022-10-23T06:28:38.289Z,77429.31
2022-10-23T06:31:09.697Z,77411.44
2022-10-23T06:33:36.696Z,77375.66
2022-10-23T06:36:05.439Z,77369.69
2022-10-23T06:38:37.341Z,77385.59
2022-10-23T06:41:05.039Z,77367.72
2022-10-23T06:43:31.519Z,77393.56
2022-10-23T06:46:02.765Z,77401.50
2022-10-23T06:48:29.316Z,77409.44
2022-10-23T06:50:55.973Z,77377.66
2022-10-23T06:53:24.841Z,77365.72
2022-10-23T06:55:59.877Z,77377.66
2022-10-23T06:58:26.796Z,77365.72
2022-10-23T07:00:53.366Z,77359.75
2022-10-23T07:03:19.987Z,77377.66
2022-10-23T07:05:47.519Z,77385.59
2022-10-23T07:08:14.171Z,77381.63
2022-10-23T07:10:43.961Z,77377.66
2022-10-23T07:13:11.331Z,77343.84
2022-10-23T07:15:38.771Z,77347.84
2022-10-23T07:18:06.196Z,77327.97
2022-10-23T07:20:32.718Z,77339.88
2022-10-23T07:22:59.212Z,77333.91
2022-10-23T07:25:26.870Z,77296.16
2022-10-23T07:27:55.403Z,77310.06
2022-10-23T07:30:22.139Z,77268.31
2022-10-23T07:32:48.652Z,77274.28
2022-10-23T07:35:16.310Z,77262.38
2022-10-23T07:37:42.989Z,77258.38
2022-10-23T07:40:12.841Z,77222.63
2022-10-23T07:42:39.388Z,77230.56
2022-10-23T07:45:07.535Z,77224.59
2022-10-23T07:47:34.267Z,77230.56
2022-10-23T07:50:00.981Z,77220.63
2022-10-23T07:52:30.821Z,77222.63
2022-10-23T07:55:00.055Z,77182.88
2022-10-23T07:57:26.564Z,77184.84
2022-10-23T07:59:54.581Z,77184.84
2022-10-23T08:02:21.113Z,77178.88
2022-10-23T08:04:50.671Z,77184.84
2022-10-23T08:07:17.456Z,77182.88
2022-10-23T08:09:43.911Z,77192.81
2022-10-23T08:12:10.466Z,77190.81
2022-10-23T08:14:37.094Z,77182.88
2022-10-23T08:17:05.152Z,77182.88
2022-10-23T08:19:32.179Z,77178.88
2022-10-23T08:21:58.658Z,77163.00
2022-10-23T08:24:25.162Z,77168.94
2022-10-23T08:26:51.880Z,77157.03
2022-10-23T08:29:18.423Z,77143.13
2022-10-23T08:31:44.901Z,77135.16
2022-10-23T08:34:11.505Z,77119.25
2022-10-23T08:36:39.299Z,77103.38
2022-10-23T08:39:06.746Z,77085.47
2022-10-23T08:41:40.355Z,77081.50
2022-10-23T08:44:18.159Z,77059.63
2022-10-23T08:47:01.977Z,77045.72
2022-10-23T08:50:02.934Z,77021.88
2022-10-23T08:52:37.421Z,77009.94
2022-10-23T08:55:17.479Z,76992.06
2022-10-23T08:57:51.704Z,76984.13
2022-10-23T09:00:18.747Z,76976.16
2022-10-23T09:02:48.628Z,76950.31
2022-10-23T09:05:32.407Z,76952.31
2022-10-23T09:08:05.127Z,76940.41
2022-10-23T09:10:45.199Z,76950.31
2022-10-23T09:13:54.999Z,76940.41
2022-10-23T09:16:47.401Z,76934.44
2022-10-23T09:19:19.683Z,76924.50
2022-10-23T09:21:49.924Z,76916.53
2022-10-23T09:24:20.873Z,76904.63
2022-10-23T09:26:49.936Z,76904.63
2022-10-23T09:29:27.516Z,76900.66
2022-10-23T09:32:00.149Z,76892.69
2022-10-23T09:34:29.237Z,76880.78
2022-10-23T09:37:01.913Z,76876.78
2022-10-23T09:39:35.660Z,76852.94
2022-10-23T09:42:20.843Z,76847.00
2022-10-23T09:44:49.792Z,76831.09
2022-10-23T09:47:20.738Z,76829.09
2022-10-23T09:49:53.124Z,76811.22
2022-10-23T09:52:35.773Z,76795.31
2022-10-23T09:55:18.904Z,76769.47
2022-10-23T09:57:47.146Z,76777.44
2022-10-23T10:00:31.903Z,76763.53
2022-10-23T10:03:02.740Z,76731.72
2022-10-23T10:05:32.420Z,76703.91
2022-10-23T10:08:14.011Z,76686.00
2022-10-23T10:10:53.875Z,76682.03
2022-10-23T10:13:26.414Z,76658.19
2022-10-23T10:15:58.280Z,76638.31
2022-10-23T10:18:56.363Z,76618.44
2022-10-23T10:21:47.688Z,76596.59
2022-10-23T10:24:25.756Z,76586.66
2022-10-23T10:27:06.936Z,76562.81
2022-10-23T10:29:36.415Z,76568.78
2022-10-23T10:32:12.562Z,76556.84
2022-10-23T10:35:10.123Z,76562.81
2022-10-23T10:37:59.580Z,76536.97
2022-10-23T10:41:12.517Z,76509.16
2022-10-23T10:44:00.187Z,76497.22
2022-10-23T10:46:35.699Z,76479.34
2022-10-23T10:49:12.789Z,76467.44
2022-10-23T10:52:23.795Z,76433.66
2022-10-23T10:54:56.355Z,76433.66
2022-10-23T10:57:40.322Z,76419.72
2022-10-23T11:00:21.918Z,76417.75
2022-10-23T11:03:22.002Z,76401.84
2022-10-23T11:05:50.680Z,76393.91
2022-10-23T11:08:44.674Z,76391.91
2022-10-23T11:11:31.427Z,76376.03
2022-10-23T11:13:58.039Z,76378.00
2022-10-23T11:16:29.877Z,76360.13
2022-10-23T11:19:11.498Z,76352.19
2022-10-23T11:22:16.711Z,76336.28
2022-10-23T11:25:20.833Z,76346.22
2022-10-23T11:28:18.343Z,76348.19
2022-10-23T11:31:15.801Z,76360.13
2022-10-23T11:33:54.119Z,76358.13
2022-10-23T11:36:50.603Z,76366.09
2022-10-23T11:39:21.539Z,76336.28
2022-10-23T11:41:51.659Z,76342.25
2022-10-23T11:44:45.724Z,76346.22
2022-10-23T11:47:39.701Z,76350.19
2022-10-23T11:50:06.683Z,76350.19
2022-10-23T11:52:41.979Z,76358.13
2022-10-23T11:55:21.291Z,76332.31
2022-10-23T11:58:19.218Z,76348.19
2022-10-23T12:01:06.166Z,76342.25
2022-10-23T12:03:52.569Z,76344.22
2022-10-23T12:06:27.392Z,76332.31
2022-10-23T12:08:59.235Z,76344.22
2022-10-23T12:11:41.378Z,76328.34
2022-10-23T12:14:28.300Z,76340.25
2022-10-23T12:16:55.080Z,76316.41
2022-10-23T12:19:24.267Z,76312.44
2022-10-23T12:21:53.079Z,76312.44
2022-10-23T12:24:53.743Z,76306.47
2022-10-23T12:27:31.224Z,76312.44
2022-10-23T12:30:16.596Z,76304.50
2022-10-23T12:33:05.322Z,76300.50
2022-10-23T12:35:53.681Z,76284.63
2022-10-23T12:38:33.800Z,76300.50
2022-10-23T12:41:22.326Z,76294.56
2022-10-23T12:43:56.232Z,76296.53
2022-10-23T12:46:42.746Z,76260.78
2022-10-23T12:49:24.199Z,76264.75
2022-10-23T12:51:59.774Z,76264.75
2022-10-23T12:54:27.780Z,76268.72
2022-10-23T12:56:54.790Z,76248.84
2022-10-23T12:59:26.420Z,76228.97
2022-10-23T13:01:54.897Z,76242.88
2022-10-23T13:04:35.357Z,76225.00
2022-10-23T13:07:03.733Z,76213.09
2022-10-23T13:09:42.100Z,76225.00
2022-10-23T13:12:20.827Z,76223.03
2022-10-23T13:15:08.957Z,76201.16
2022-10-23T13:17:35.494Z,76205.13
2022-10-23T13:20:19.764Z,76217.06
2022-10-23T13:22:49.140Z,76205.13
2022-10-23T13:25:36.420Z,76219.03
2022-10-23T13:28:13.469Z,76205.13
2022-10-23T13:30:46.384Z,76211.09
2022-10-23T13:33:25.729Z,76191.22
2022-10-23T13:36:01.559Z,76207.13
2022-10-23T13:38:33.932Z,76199.19
2022-10-23T13:41:02.303Z,76181.28
2022-10-23T13:43:30.843Z,76183.28
2022-10-23T13:46:00.954Z,76173.34
2022-10-23T13:48:27.874Z,76165.41
2022-10-23T13:50:54.689Z,76165.41
2022-10-23T13:53:21.170Z,76181.28
2022-10-23T13:55:52.546Z,76185.25
2022-10-23T13:58:21.396Z,76177.31
2022-10-23T14:00:49.767Z,76169.38
2022-10-23T14:03:17.232Z,76187.25
2022-10-23T14:05:43.694Z,76181.28
2022-10-23T14:08:10.353Z,76193.22
2022-10-23T14:10:36.881Z,76201.16
2022-10-23T14:13:03.379Z,76207.13
2022-10-23T14:15:29.852Z,76201.16
2022-10-23T14:17:59.073Z,76213.09
2022-10-23T14:20:27.863Z,76228.97
2022-10-23T14:22:54.560Z,76242.88
2022-10-23T14:25:21.461Z,76256.78
2022-10-23T14:27:48.029Z,76268.72
2022-10-23T14:30:15.293Z,76282.63
2022-10-23T14:32:42.187Z,76280.66
2022-10-23T14:35:09.089Z,76280.66
2022-10-23T14:37:35.568Z,76274.69
2022-10-23T14:40:02.107Z,76270.72
2022-10-23T14:42:34.096Z,76270.72
2022-10-23T14:45:02.621Z,76280.66
2022-10-23T14:47:29.487Z,76292.56
2022-10-23T14:49:56.623Z,76288.59
2022-10-23T14:52:24.104Z,76290.56
2022-10-23T14:54:53.225Z,76304.50
2022-10-23T14:57:21.853Z,76308.47
2022-10-23T14:59:49.751Z,76300.50
2022-10-23T15:02:17.699Z,76300.50
2022-10-23T15:04:44.357Z,76320.38
2022-10-23T15:07:10.784Z,76328.34
2022-10-23T15:09:37.475Z,76346.22
2022-10-23T15:12:05.253Z,76336.28
2022-10-23T15:14:32.095Z,76344.22
2022-10-23T15:16:58.568Z,76334.28
2022-10-23T15:19:25.557Z,76318.41
2022-10-23T15:21:52.534Z,76340.25
2022-10-23T15:24:20.795Z,76364.09
2022-10-23T15:26:47.672Z,76380.00
2022-10-23T15:29:15.361Z,76395.91
2022-10-23T15:31:42.940Z,76395.91
2022-10-23T15:34:12.477Z,76409.81
2022-10-23T15:36:39.443Z,76378.00
2022-10-23T15:39:08.098Z,76399.88
2022-10-23T15:41:37.358Z,76403.84
2022-10-23T15:44:06.061Z,76417.75
2022-10-23T15:46:32.685Z,76423.72
2022-10-23T15:48:59.316Z,76441.59
2022-10-23T15:51:26.049Z,76431.66
2022-10-23T15:53:52.624Z,76443.59
2022-10-23T15:56:19.182Z,76457.50
2022-10-23T15:58:45.999Z,76467.44
2022-10-23T16:01:12.592Z,76471.41
2022-10-23T16:03:42.189Z,76465.44
2022-10-23T16:06:11.483Z,76477.38
2022-10-23T16:08:43.817Z,76491.28
2022-10-23T16:11:15.083Z,76493.25
2022-10-23T16:13:44.789Z,76487.28
2022-10-23T16:16:12.306Z,76491.28
2022-10-23T16:18:39.046Z,76499.22
2022-10-23T16:21:06.695Z,76499.22
2022-10-23T16:23:34.128Z,76503.19
2022-10-23T16:26:05.373Z,76485.31
2022-10-23T16:28:32.493Z,76505.19
2022-10-23T16:30:59.373Z,76503.19
2022-10-23T16:33:25.951Z,76495.25
2022-10-23T16:35:52.437Z,76499.22
2022-10-23T16:38:19.298Z,76501.22
2022-10-23T16:40:51.873Z,76517.09
2022-10-23T16:43:18.453Z,76497.22
2022-10-23T16:45:44.959Z,76521.09
2022-10-23T16:48:11.581Z,76519.09
2022-10-23T16:53:11.296Z,76487.28
2022-10-23T16:55:40.567Z,76493.25
2022-10-23T16:58:07.047Z,76497.22
2022-10-23T17:00:35.284Z,76509.16
2022-10-23T17:03:03.469Z,76507.16
2022-10-23T17:05:34.312Z,76487.28
2022-10-23T17:08:01.097Z,76473.38
2022-10-23T17:10:27.937Z,76469.41
2022-10-23T17:12:54.428Z,76461.47
2022-10-23T17:15:20.965Z,76471.41
2022-10-23T17:17:47.436Z,76467.44
2022-10-23T17:20:13.962Z,76473.38
2022-10-23T17:22:40.428Z,76471.41
2022-10-23T17:25:07.680Z,76463.44
2022-10-23T17:27:34.154Z,76451.53
2022-10-23T17:30:00.634Z,76457.50
2022-10-23T17:32:27.210Z,76457.50
2022-10-23T17:34:53.714Z,76459.47
2022-10-23T17:37:20.208Z,76465.44
2022-10-23T17:39:46.710Z,76457.50
2022-10-23T17:42:13.317Z,76461.47
2022-10-23T17:44:39.771Z,76465.44
2022-10-23T17:47:06.252Z,76457.50
2022-10-23T17:49:32.721Z,76459.47
2022-10-23T17:51:59.259Z,76455.50
2022-10-23T17:54:26.948Z,76455.50
2022-10-23T17:56:53.827Z,76451.53
2022-10-23T17:59:20.327Z,76451.53
2022-10-23T18:01:48.114Z,76457.50
2022-10-23T18:04:17.974Z,76471.41
2022-10-23T18:06:47.528Z,76491.28
2022-10-23T18:09:14.459Z,76467.44
2022-10-23T18:11:45.373Z,76487.28
2022-10-23T18:14:15.903Z,76483.31
2022-10-23T18:16:42.417Z,76469.41
2022-10-23T18:19:09.136Z,76471.41
2022-10-23T18:21:36.588Z,76477.38
2022-10-23T18:24:03.894Z,76467.44
2022-10-23T18:26:34.878Z,76481.34
2022-10-23T18:29:04.226Z,76493.25
2022-10-23T18:31:30.810Z,76485.31
2022-10-23T18:34:13.621Z,76487.28
2022-10-23T18:36:40.920Z,76491.28
2022-10-23T18:39:11.242Z,76507.16
2022-10-23T18:41:41.399Z,76519.09
2022-10-23T18:44:10.709Z,76523.06
2022-10-23T18:46:37.719Z,76513.13
2022-10-23T18:49:04.640Z,76503.19
2022-10-23T18:51:34.398Z,76495.25
2022-10-23T18:54:07.791Z,76499.22
2022-10-23T18:56:35.963Z,76495.25
2022-10-23T18:59:05.088Z,76507.16
2022-10-23T19:01:32.330Z,76513.13
2022-10-23T19:04:00.650Z,76523.06
2022-10-23T19:06:28.345Z,76517.09
2022-10-23T19:08:55.019Z,76511.16
2022-10-23T19:11:24.988Z,76513.13
2022-10-23T19:13:51.562Z,76505.19
2022-10-23T19:16:29.120Z,76495.25
2022-10-23T19:18:59.156Z,76505.19
2022-10-23T19:21:31.721Z,76519.09
2022-10-23T19:24:01.918Z,76521.09
2022-10-23T19:26:30.244Z,76527.03
2022-10-23T19:28:57.317Z,76519.09
2022-10-23T19:31:26.449Z,76513.13
2022-10-23T19:33:53.657Z,76531.00
2022-10-23T19:36:23.405Z,76515.13
2022-10-23T19:38:50.663Z,76525.06
2022-10-23T19:41:18.871Z,76511.16
2022-10-23T19:43:45.645Z,76531.00
2022-10-23T19:46:12.466Z,76519.09
2022-10-23T19:48:44.274Z,76505.19
2022-10-23T19:51:12.961Z,76515.13
2022-10-23T19:53:40.911Z,76519.09
2022-10-23T19:56:09.556Z,76517.09
2022-10-23T19:58:36.045Z,76515.13
2022-10-23T20:01:13.466Z,76511.16
2022-10-23T20:03:41.984Z,76507.16
2022-10-23T20:06:13.337Z,76519.09
2022-10-23T20:08:40.583Z,76542.94
2022-10-23T20:11:08.506Z,76531.00
2022-10-23T20:13:35.352Z,76540.94
2022-10-23T20:16:01.976Z,76542.94
2022-10-23T20:18:28.486Z,76550.88
2022-10-23T20:20:55.000Z,76535.00
2022-10-23T20:23:21.619Z,76525.06
2022-10-23T20:25:48.286Z,76538.97
2022-10-23T20:28:15.336Z,76536.97
2022-10-23T20:30:42.662Z,76538.97
2022-10-23T20:33:09.455Z,76521.09
2022-10-23T20:35:43.279Z,76531.00
2022-10-23T20:38:10.315Z,76536.97
2022-10-23T20:40:37.118Z,76568.78
2022-10-23T20:43:04.021Z,76592.63
2022-10-23T20:45:30.495Z,76574.72
2022-10-23T20:47:57.439Z,76592.63
2022-10-23T20:50:24.203Z,76586.66
2022-10-23T20:52:51.334Z,76608.50
2022-10-23T20:55:18.395Z,76604.53
2022-10-23T20:57:45.157Z,76608.50
2022-10-23T21:00:12.227Z,76586.66
2022-10-23T21:02:38.809Z,76582.69
2022-10-23T21:05:05.830Z,76596.59
2022-10-23T21:07:32.328Z,76602.56
2022-10-23T21:09:58.927Z,76618.44
2022-10-23T21:12:25.477Z,76614.47
2022-10-23T21:14:53.396Z,76628.38
2022-10-23T21:17:20.595Z,76624.41
2022-10-23T21:19:47.363Z,76620.44
2022-10-23T21:22:13.834Z,76632.34
2022-10-23T21:24:40.276Z,76640.31
2022-10-23T21:27:06.729Z,76638.31
2022-10-23T21:29:33.222Z,76646.28
2022-10-23T21:32:03.486Z,76642.28
2022-10-23T21:34:30.662Z,76648.25
2022-10-23T21:37:12.527Z,76646.28
2022-10-23T21:39:41.104Z,76650.25
2022-10-23T21:42:08.045Z,76652.22
2022-10-23T21:44:34.532Z,76666.16
2022-10-23T21:47:01.027Z,76674.09
2022-10-23T21:49:27.613Z,76670.13
2022-10-23T21:51:55.113Z,76650.25
2022-10-23T21:54:21.928Z,76636.34
2022-10-23T21:56:50.869Z,76630.38
2022-10-23T21:59:20.023Z,76632.34
2022-10-23T22:01:48.270Z,76622.44
2022-10-23T22:04:19.796Z,76604.53
2022-10-23T22:06:48.118Z,76580.69
2022-10-23T22:09:18.923Z,76594.59
2022-10-23T22:11:45.507Z,76584.66
2022-10-23T22:14:11.927Z,76588.63
2022-10-23T22:16:38.501Z,76596.59
2022-10-23T22:19:04.975Z,76582.69
2022-10-23T22:21:31.614Z,76592.63
2022-10-23T22:24:00.173Z,76578.72
2022-10-23T22:26:36.333Z,76570.75
2022-10-23T22:29:09.009Z,76578.72
2022-10-23T22:31:36.616Z,76566.78
2022-10-23T22:34:18.577Z,76582.69
2022-10-23T22:36:54.588Z,76574.72
2022-10-23T22:39:21.683Z,76562.81
2022-10-23T22:41:48.220Z,76562.81
2022-10-23T22:44:15.762Z,76562.81
2022-10-23T22:46:43.171Z,76552.88
2022-10-23T22:49:09.957Z,76550.88
2022-10-23T22:51:37.599Z,76546.91
2022-10-23T22:54:04.143Z,76548.91
2022-10-23T22:56:30.832Z,76552.88
2022-10-23T22:58:58.130Z,76544.94
2022-10-23T23:01:34.504Z,76538.97
2022-10-23T23:04:08.957Z,76560.81
2022-10-23T23:06:48.124Z,76554.84
2022-10-23T23:09:17.886Z,76550.88
2022-10-23T23:11:51.181Z,76538.97
2022-10-23T23:14:22.955Z,76564.78
2022-10-23T23:16:51.539Z,76564.78
2022-10-23T23:19:17.987Z,76556.84
2022-10-23T23:21:44.505Z,76548.91
2022-10-23T23:24:11.909Z,76548.91
2022-10-23T23:26:38.372Z,76540.94
2022-10-23T23:29:04.871Z,76533.00
2022-10-23T23:31:31.500Z,76546.91
2022-10-23T23:33:57.964Z,76562.81
2022-10-23T23:36:26.604Z,76548.91
2022-10-23T23:38:53.582Z,76535.00
2022-10-23T23:41:21.381Z,76544.94
2022-10-23T23:43:48.355Z,76544.94
2022-10-23T23:46:15.448Z,76531.00
2022-10-23T23:48:47.185Z,76517.09
2022-10-23T23:51:18.526Z,76542.94
2022-10-23T23:53:45.038Z,76538.97
2022-10-23T23:56:11.507Z,76527.03
2022-10-23T23:58:38.028Z,76546.91
